sensor_id;sensor_type;location;lat;lon;timestamp;temperature;humidity
65995;HTU21D;52764;51.036;5.852;2023-08-06T00:00:25;19.11;70.30
65995;HTU21D;52764;51.036;5.852;2023-08-06T00:02:51;19.08;70.41
65995;HTU21D;52764;51.036;5.852;2023-08-06T00:05:17;19.11;70.28
65995;HTU21D;52764;51.036;5.852;2023-08-06T00:07:49;19.13;70.34
65995;HTU21D;52764;51.036;5.852;2023-08-06T00:10:16;19.11;70.21
65995;HTU21D;52764;51.036;5.852;2023-08-06T00:12:45;19.11;70.38
65995;HTU21D;52764;51.036;5.852;2023-08-06T00:15:11;19.09;70.24
65995;HTU21D;52764;51.036;5.852;2023-08-06T00:17:37;19.09;70.24
65995;HTU21D;52764;51.036;5.852;2023-08-06T00:20:04;19.12;70.12
65995;HTU21D;52764;51.036;5.852;2023-08-06T00:22:36;19.15;69.84
65995;HTU21D;52764;51.036;5.852;2023-08-06T00:25:03;19.07;69.83
65995;HTU21D;52764;51.036;5.852;2023-08-06T00:27:29;19.12;69.78
65995;HTU21D;52764;51.036;5.852;2023-08-06T00:29:55;19.14;69.84
65995;HTU21D;52764;51.036;5.852;2023-08-06T00:32:21;19.15;69.85
65995;HTU21D;52764;51.036;5.852;2023-08-06T00:34:47;19.12;69.64
65995;HTU21D;52764;51.036;5.852;2023-08-06T00:37:17;19.10;69.52
65995;HTU21D;52764;51.036;5.852;2023-08-06T00:39:43;19.01;69.56
65995;HTU21D;52764;51.036;5.852;2023-08-06T00:42:09;18.94;69.87
65995;HTU21D;52764;51.036;5.852;2023-08-06T00:44:35;18.93;70.03
65995;HTU21D;52764;51.036;5.852;2023-08-06T00:47:02;18.93;70.14
65995;HTU21D;52764;51.036;5.852;2023-08-06T00:49:28;18.91;70.14
65995;HTU21D;52764;51.036;5.852;2023-08-06T00:51:54;18.86;70.13
65995;HTU21D;52764;51.036;5.852;2023-08-06T00:54:20;18.79;70.08
65995;HTU21D;52764;51.036;5.852;2023-08-06T00:56:46;18.71;70.32
65995;HTU21D;52764;51.036;5.852;2023-08-06T00:59:13;18.59;70.52
65995;HTU21D;52764;51.036;5.852;2023-08-06T01:01:39;18.51;70.84
65995;HTU21D;52764;51.036;5.852;2023-08-06T01:04:05;18.44;71.06
65995;HTU21D;52764;51.036;5.852;2023-08-06T01:06:48;18.41;71.16
65995;HTU21D;52764;51.036;5.852;2023-08-06T01:17:14;18.25;71.96
65995;HTU21D;52764;51.036;5.852;2023-08-06T01:19:40;18.28;71.89
65995;HTU21D;52764;51.036;5.852;2023-08-06T01:22:06;18.35;71.92
65995;HTU21D;52764;51.036;5.852;2023-08-06T01:24:32;18.37;71.84
65995;HTU21D;52764;51.036;5.852;2023-08-06T01:27:11;18.37;71.93
65995;HTU21D;52764;51.036;5.852;2023-08-06T01:29:46;18.38;71.90
65995;HTU21D;52764;51.036;5.852;2023-08-06T01:32:15;18.36;71.84
65995;HTU21D;52764;51.036;5.852;2023-08-06T01:34:44;18.29;72.19
65995;HTU21D;52764;51.036;5.852;2023-08-06T01:37:11;18.29;72.44
65995;HTU21D;52764;51.036;5.852;2023-08-06T01:39:37;18.22;72.63
65995;HTU21D;52764;51.036;5.852;2023-08-06T01:42:06;18.19;72.93
65995;HTU21D;52764;51.036;5.852;2023-08-06T01:44:33;18.20;73.04
65995;HTU21D;52764;51.036;5.852;2023-08-06T01:46:59;18.10;73.49
65995;HTU21D;52764;51.036;5.852;2023-08-06T01:49:25;17.97;74.15
65995;HTU21D;52764;51.036;5.852;2023-08-06T01:51:51;17.90;74.64
65995;HTU21D;52764;51.036;5.852;2023-08-06T01:54:16;17.81;75.26
65995;HTU21D;52764;51.036;5.852;2023-08-06T01:56:43;17.75;75.91
65995;HTU21D;52764;51.036;5.852;2023-08-06T01:59:10;17.74;76.20
65995;HTU21D;52764;51.036;5.852;2023-08-06T02:01:35;17.75;76.60
65995;HTU21D;52764;51.036;5.852;2023-08-06T02:04:01;17.75;76.73
65995;HTU21D;52764;51.036;5.852;2023-08-06T02:06:28;17.76;76.79
65995;HTU21D;52764;51.036;5.852;2023-08-06T02:08:54;17.82;76.98
65995;HTU21D;52764;51.036;5.852;2023-08-06T02:11:20;17.90;77.02
65995;HTU21D;52764;51.036;5.852;2023-08-06T02:13:46;17.96;76.71
65995;HTU21D;52764;51.036;5.852;2023-08-06T02:16:16;17.96;76.43
65995;HTU21D;52764;51.036;5.852;2023-08-06T02:18:42;17.90;76.66
65995;HTU21D;52764;51.036;5.852;2023-08-06T02:21:07;17.82;76.86
65995;HTU21D;52764;51.036;5.852;2023-08-06T02:23:33;17.74;77.21
65995;HTU21D;52764;51.036;5.852;2023-08-06T02:26:03;17.68;77.37
65995;HTU21D;52764;51.036;5.852;2023-08-06T02:28:32;17.55;77.69
65995;HTU21D;52764;51.036;5.852;2023-08-06T02:30:58;17.45;78.04
65995;HTU21D;52764;51.036;5.852;2023-08-06T02:33:24;17.40;78.40
65995;HTU21D;52764;51.036;5.852;2023-08-06T02:35:50;17.37;78.61
65995;HTU21D;52764;51.036;5.852;2023-08-06T02:38:16;17.35;78.85
65995;HTU21D;52764;51.036;5.852;2023-08-06T02:40:45;17.23;79.21
65995;HTU21D;52764;51.036;5.852;2023-08-06T02:43:11;17.10;79.76
65995;HTU21D;52764;51.036;5.852;2023-08-06T02:45:37;17.02;80.12
65995;HTU21D;52764;51.036;5.852;2023-08-06T02:48:03;16.93;80.60
65995;HTU21D;52764;51.036;5.852;2023-08-06T02:50:29;16.85;81.05
65995;HTU21D;52764;51.036;5.852;2023-08-06T02:52:55;16.82;81.17
65995;HTU21D;52764;51.036;5.852;2023-08-06T02:55:21;16.76;81.85
65995;HTU21D;52764;51.036;5.852;2023-08-06T02:57:48;16.82;82.04
65995;HTU21D;52764;51.036;5.852;2023-08-06T03:00:14;16.88;82.09
65995;HTU21D;52764;51.036;5.852;2023-08-06T03:02:40;17.01;81.93
65995;HTU21D;52764;51.036;5.852;2023-08-06T03:05:35;17.08;81.45
65995;HTU21D;52764;51.036;5.852;2023-08-06T03:08:01;17.13;81.29
65995;HTU21D;52764;51.036;5.852;2023-08-06T03:10:28;17.20;80.91
65995;HTU21D;52764;51.036;5.852;2023-08-06T03:12:57;17.30;80.68
65995;HTU21D;52764;51.036;5.852;2023-08-06T03:15:23;17.31;80.56
65995;HTU21D;52764;51.036;5.852;2023-08-06T03:17:49;17.36;80.37
65995;HTU21D;52764;51.036;5.852;2023-08-06T03:20:18;17.29;80.44
65995;HTU21D;52764;51.036;5.852;2023-08-06T03:22:44;17.06;81.03
65995;HTU21D;52764;51.036;5.852;2023-08-06T03:25:10;16.94;81.66
65995;HTU21D;52764;51.036;5.852;2023-08-06T03:27:36;16.80;82.39
65995;HTU21D;52764;51.036;5.852;2023-08-06T03:30:02;16.82;82.98
65995;HTU21D;52764;51.036;5.852;2023-08-06T03:32:29;16.94;82.91
65995;HTU21D;52764;51.036;5.852;2023-08-06T03:34:55;17.05;82.87
65995;HTU21D;52764;51.036;5.852;2023-08-06T03:37:22;17.16;82.72
65995;HTU21D;52764;51.036;5.852;2023-08-06T03:39:50;17.14;82.55
65995;HTU21D;52764;51.036;5.852;2023-08-06T03:42:16;17.01;82.88
65995;HTU21D;52764;51.036;5.852;2023-08-06T03:44:42;16.90;83.30
65995;HTU21D;52764;51.036;5.852;2023-08-06T03:47:08;16.82;83.67
65995;HTU21D;52764;51.036;5.852;2023-08-06T03:49:34;16.78;84.04
65995;HTU21D;52764;51.036;5.852;2023-08-06T03:52:00;16.84;83.94
65995;HTU21D;52764;51.036;5.852;2023-08-06T03:54:26;16.94;83.51
65995;HTU21D;52764;51.036;5.852;2023-08-06T03:56:52;16.99;83.13
65995;HTU21D;52764;51.036;5.852;2023-08-06T03:59:17;17.00;83.00
65995;HTU21D;52764;51.036;5.852;2023-08-06T04:01:45;17.06;82.97
65995;HTU21D;52764;51.036;5.852;2023-08-06T04:04:11;17.11;82.72
65995;HTU21D;52764;51.036;5.852;2023-08-06T04:06:36;17.14;82.68
65995;HTU21D;52764;51.036;5.852;2023-08-06T04:09:02;17.13;82.71
65995;HTU21D;52764;51.036;5.852;2023-08-06T04:11:28;17.14;82.78
65995;HTU21D;52764;51.036;5.852;2023-08-06T04:13:54;17.19;82.71
65995;HTU21D;52764;51.036;5.852;2023-08-06T04:16:21;17.23;82.35
65995;HTU21D;52764;51.036;5.852;2023-08-06T04:18:47;17.24;82.35
65995;HTU21D;52764;51.036;5.852;2023-08-06T04:21:12;17.26;82.27
65995;HTU21D;52764;51.036;5.852;2023-08-06T04:23:39;17.25;82.35
65995;HTU21D;52764;51.036;5.852;2023-08-06T04:26:07;17.30;82.28
65995;HTU21D;52764;51.036;5.852;2023-08-06T04:28:34;17.21;82.51
65995;HTU21D;52764;51.036;5.852;2023-08-06T04:31:00;17.16;82.84
65995;HTU21D;52764;51.036;5.852;2023-08-06T04:33:26;17.11;82.94
65995;HTU21D;52764;51.036;5.852;2023-08-06T04:35:55;17.14;83.09
65995;HTU21D;52764;51.036;5.852;2023-08-06T04:38:24;17.18;83.13
65995;HTU21D;52764;51.036;5.852;2023-08-06T04:40:54;17.25;82.90
65995;HTU21D;52764;51.036;5.852;2023-08-06T04:43:21;17.36;82.65
65995;HTU21D;52764;51.036;5.852;2023-08-06T04:45:51;17.43;82.41
65995;HTU21D;52764;51.036;5.852;2023-08-06T04:48:17;17.45;82.11
65995;HTU21D;52764;51.036;5.852;2023-08-06T04:50:47;17.38;82.18
65995;HTU21D;52764;51.036;5.852;2023-08-06T04:53:13;17.44;81.97
65995;HTU21D;52764;51.036;5.852;2023-08-06T04:55:39;17.38;82.17
65995;HTU21D;52764;51.036;5.852;2023-08-06T04:58:05;17.40;82.23
65995;HTU21D;52764;51.036;5.852;2023-08-06T05:00:31;17.45;81.94
65995;HTU21D;52764;51.036;5.852;2023-08-06T05:02:59;17.41;82.09
65995;HTU21D;52764;51.036;5.852;2023-08-06T05:05:26;17.44;81.97
65995;HTU21D;52764;51.036;5.852;2023-08-06T05:07:53;17.45;82.01
65995;HTU21D;52764;51.036;5.852;2023-08-06T05:10:19;17.49;82.03
65995;HTU21D;52764;51.036;5.852;2023-08-06T05:12:45;17.56;81.70
65995;HTU21D;52764;51.036;5.852;2023-08-06T05:15:10;17.62;81.39
65995;HTU21D;52764;51.036;5.852;2023-08-06T05:17:36;17.67;81.20
65995;HTU21D;52764;51.036;5.852;2023-08-06T05:20:02;17.74;81.14
65995;HTU21D;52764;51.036;5.852;2023-08-06T05:22:28;17.80;80.94
65995;HTU21D;52764;51.036;5.852;2023-08-06T05:24:54;17.89;80.72
65995;HTU21D;52764;51.036;5.852;2023-08-06T05:27:19;17.92;80.37
65995;HTU21D;52764;51.036;5.852;2023-08-06T05:29:45;17.96;80.27
65995;HTU21D;52764;51.036;5.852;2023-08-06T05:32:11;17.94;80.19
65995;HTU21D;52764;51.036;5.852;2023-08-06T05:34:37;17.91;80.57
65995;HTU21D;52764;51.036;5.852;2023-08-06T05:37:03;17.92;80.69
65995;HTU21D;52764;51.036;5.852;2023-08-06T05:39:29;17.95;80.64
65995;HTU21D;52764;51.036;5.852;2023-08-06T05:41:55;17.97;80.68
65995;HTU21D;52764;51.036;5.852;2023-08-06T05:44:21;17.98;80.71
65995;HTU21D;52764;51.036;5.852;2023-08-06T05:46:48;17.99;80.58
65995;HTU21D;52764;51.036;5.852;2023-08-06T05:49:14;18.05;80.48
65995;HTU21D;52764;51.036;5.852;2023-08-06T05:51:40;18.09;80.64
65995;HTU21D;52764;51.036;5.852;2023-08-06T05:54:05;18.12;80.50
65995;HTU21D;52764;51.036;5.852;2023-08-06T05:56:31;18.14;80.47
65995;HTU21D;52764;51.036;5.852;2023-08-06T05:58:57;18.20;80.46
65995;HTU21D;52764;51.036;5.852;2023-08-06T06:01:22;18.20;80.62
65995;HTU21D;52764;51.036;5.852;2023-08-06T06:03:48;18.23;80.40
65995;HTU21D;52764;51.036;5.852;2023-08-06T06:06:14;18.23;80.29
65995;HTU21D;52764;51.036;5.852;2023-08-06T06:08:40;18.22;80.36
65995;HTU21D;52764;51.036;5.852;2023-08-06T06:11:05;18.23;80.52
65995;HTU21D;52764;51.036;5.852;2023-08-06T06:13:31;18.19;80.65
65995;HTU21D;52764;51.036;5.852;2023-08-06T06:15:57;18.19;80.99
65995;HTU21D;52764;51.036;5.852;2023-08-06T06:18:22;18.22;81.25
65995;HTU21D;52764;51.036;5.852;2023-08-06T06:20:48;18.24;81.27
65995;HTU21D;52764;51.036;5.852;2023-08-06T06:23:14;18.20;81.31
65995;HTU21D;52764;51.036;5.852;2023-08-06T06:25:43;18.15;81.43
65995;HTU21D;52764;51.036;5.852;2023-08-06T06:28:09;18.09;81.68
65995;HTU21D;52764;51.036;5.852;2023-08-06T06:30:34;18.03;81.61
65995;HTU21D;52764;51.036;5.852;2023-08-06T06:33:00;17.99;81.42
65995;HTU21D;52764;51.036;5.852;2023-08-06T06:35:26;17.91;81.81
65995;HTU21D;52764;51.036;5.852;2023-08-06T06:37:51;17.85;81.55
65995;HTU21D;52764;51.036;5.852;2023-08-06T06:40:17;17.66;82.18
65995;HTU21D;52764;51.036;5.852;2023-08-06T06:42:43;17.61;82.58
65995;HTU21D;52764;51.036;5.852;2023-08-06T06:45:09;17.59;82.82
65995;HTU21D;52764;51.036;5.852;2023-08-06T06:47:35;17.60;82.78
65995;HTU21D;52764;51.036;5.852;2023-08-06T06:50:00;17.62;82.79
65995;HTU21D;52764;51.036;5.852;2023-08-06T06:52:26;17.59;82.75
65995;HTU21D;52764;51.036;5.852;2023-08-06T06:54:52;17.56;82.94
65995;HTU21D;52764;51.036;5.852;2023-08-06T06:57:17;17.53;83.02
65995;HTU21D;52764;51.036;5.852;2023-08-06T06:59:43;17.50;83.09
65995;HTU21D;52764;51.036;5.852;2023-08-06T07:02:09;17.51;83.00
65995;HTU21D;52764;51.036;5.852;2023-08-06T07:04:34;17.52;82.94
65995;HTU21D;52764;51.036;5.852;2023-08-06T07:07:00;17.55;82.91
65995;HTU21D;52764;51.036;5.852;2023-08-06T07:09:26;17.54;82.87
65995;HTU21D;52764;51.036;5.852;2023-08-06T07:11:52;17.54;82.98
65995;HTU21D;52764;51.036;5.852;2023-08-06T07:14:18;17.58;83.22
65995;HTU21D;52764;51.036;5.852;2023-08-06T07:16:43;17.66;83.12
65995;HTU21D;52764;51.036;5.852;2023-08-06T07:19:09;17.75;82.94
65995;HTU21D;52764;51.036;5.852;2023-08-06T07:21:35;17.81;82.58
65995;HTU21D;52764;51.036;5.852;2023-08-06T07:24:00;17.87;82.31
65995;HTU21D;52764;51.036;5.852;2023-08-06T07:26:26;17.87;82.14
65995;HTU21D;52764;51.036;5.852;2023-08-06T07:28:52;17.90;82.17
65995;HTU21D;52764;51.036;5.852;2023-08-06T07:31:17;17.98;82.01
65995;HTU21D;52764;51.036;5.852;2023-08-06T07:33:43;18.04;81.75
65995;HTU21D;52764;51.036;5.852;2023-08-06T07:36:11;18.14;81.14
65995;HTU21D;52764;51.036;5.852;2023-08-06T07:38:37;18.10;81.01
65995;HTU21D;52764;51.036;5.852;2023-08-06T07:41:03;18.05;80.97
65995;HTU21D;52764;51.036;5.852;2023-08-06T07:43:29;18.03;80.88
65995;HTU21D;52764;51.036;5.852;2023-08-06T07:45:58;17.81;79.78
65995;HTU21D;52764;51.036;5.852;2023-08-06T07:48:25;17.53;80.32
65995;HTU21D;52764;51.036;5.852;2023-08-06T07:50:52;17.33;80.87
65995;HTU21D;52764;51.036;5.852;2023-08-06T07:53:23;17.11;81.63
65995;HTU21D;52764;51.036;5.852;2023-08-06T07:55:53;17.05;81.59
65995;HTU21D;52764;51.036;5.852;2023-08-06T07:58:20;16.93;82.17
65995;HTU21D;52764;51.036;5.852;2023-08-06T08:00:46;16.89;82.65
65995;HTU21D;52764;51.036;5.852;2023-08-06T08:03:13;16.86;83.19
65995;HTU21D;52764;51.036;5.852;2023-08-06T08:05:41;16.88;83.39
65995;HTU21D;52764;51.036;5.852;2023-08-06T08:08:06;16.90;83.69
65995;HTU21D;52764;51.036;5.852;2023-08-06T08:10:33;16.94;83.87
65995;HTU21D;52764;51.036;5.852;2023-08-06T08:13:03;17.03;83.77
65995;HTU21D;52764;51.036;5.852;2023-08-06T08:15:31;16.98;83.59
65995;HTU21D;52764;51.036;5.852;2023-08-06T08:17:57;16.96;83.73
65995;HTU21D;52764;51.036;5.852;2023-08-06T08:20:23;16.95;83.36
65995;HTU21D;52764;51.036;5.852;2023-08-06T08:22:49;16.84;83.84
65995;HTU21D;52764;51.036;5.852;2023-08-06T08:25:16;16.78;84.00
65995;HTU21D;52764;51.036;5.852;2023-08-06T08:27:42;16.77;83.98
65995;HTU21D;52764;51.036;5.852;2023-08-06T08:30:08;16.61;84.01
65995;HTU21D;52764;51.036;5.852;2023-08-06T08:32:33;16.59;84.42
65995;HTU21D;52764;51.036;5.852;2023-08-06T08:34:59;16.54;84.59
65995;HTU21D;52764;51.036;5.852;2023-08-06T08:37:25;16.49;84.72
65995;HTU21D;52764;51.036;5.852;2023-08-06T08:39:50;16.48;85.30
65995;HTU21D;52764;51.036;5.852;2023-08-06T08:42:17;16.55;85.71
65995;HTU21D;52764;51.036;5.852;2023-08-06T08:44:44;16.64;85.60
65995;HTU21D;52764;51.036;5.852;2023-08-06T08:47:11;16.73;85.60
65995;HTU21D;52764;51.036;5.852;2023-08-06T08:49:38;16.85;85.02
65995;HTU21D;52764;51.036;5.852;2023-08-06T08:52:08;16.86;84.53
65995;HTU21D;52764;51.036;5.852;2023-08-06T08:54:38;16.84;83.93
65995;HTU21D;52764;51.036;5.852;2023-08-06T08:57:04;16.79;83.70
65995;HTU21D;52764;51.036;5.852;2023-08-06T08:59:33;16.81;83.58
65995;HTU21D;52764;51.036;5.852;2023-08-06T09:02:00;16.80;83.16
65995;HTU21D;52764;51.036;5.852;2023-08-06T09:04:30;16.81;83.09
65995;HTU21D;52764;51.036;5.852;2023-08-06T09:07:02;16.84;82.92
65995;HTU21D;52764;51.036;5.852;2023-08-06T09:09:34;16.87;82.55
65995;HTU21D;52764;51.036;5.852;2023-08-06T09:12:12;16.96;82.68
65995;HTU21D;52764;51.036;5.852;2023-08-06T09:14:38;17.09;82.36
65995;HTU21D;52764;51.036;5.852;2023-08-06T09:17:04;17.19;82.25
65995;HTU21D;52764;51.036;5.852;2023-08-06T09:19:32;17.29;81.76
65995;HTU21D;52764;51.036;5.852;2023-08-06T09:21:59;17.36;81.74
65995;HTU21D;52764;51.036;5.852;2023-08-06T09:24:25;17.46;81.02
65995;HTU21D;52764;51.036;5.852;2023-08-06T09:26:52;17.45;81.16
65995;HTU21D;52764;51.036;5.852;2023-08-06T09:29:18;17.50;80.82
65995;HTU21D;52764;51.036;5.852;2023-08-06T09:31:48;17.59;80.73
65995;HTU21D;52764;51.036;5.852;2023-08-06T09:34:20;17.68;80.36
65995;HTU21D;52764;51.036;5.852;2023-08-06T09:36:53;17.81;80.14
65995;HTU21D;52764;51.036;5.852;2023-08-06T09:39:20;17.90;79.79
65995;HTU21D;52764;51.036;5.852;2023-08-06T09:41:47;17.98;79.60
65995;HTU21D;52764;51.036;5.852;2023-08-06T09:44:18;18.17;79.64
65995;HTU21D;52764;51.036;5.852;2023-08-06T09:46:54;18.32;79.48
65995;HTU21D;52764;51.036;5.852;2023-08-06T09:49:42;18.46;78.78
65995;HTU21D;52764;51.036;5.852;2023-08-06T09:52:13;18.55;78.48
65995;HTU21D;52764;51.036;5.852;2023-08-06T09:54:43;18.65;77.29
65995;HTU21D;52764;51.036;5.852;2023-08-06T09:57:09;18.64;77.44
65995;HTU21D;52764;51.036;5.852;2023-08-06T09:59:37;18.67;77.18
65995;HTU21D;52764;51.036;5.852;2023-08-06T10:02:12;18.77;77.20
65995;HTU21D;52764;51.036;5.852;2023-08-06T10:04:39;18.81;77.00
65995;HTU21D;52764;51.036;5.852;2023-08-06T10:07:05;18.85;77.02
65995;HTU21D;52764;51.036;5.852;2023-08-06T10:09:31;18.84;76.39
65995;HTU21D;52764;51.036;5.852;2023-08-06T10:11:57;18.68;76.60
65995;HTU21D;52764;51.036;5.852;2023-08-06T10:14:33;18.58;77.06
65995;HTU21D;52764;51.036;5.852;2023-08-06T10:17:01;18.53;77.02
65995;HTU21D;52764;51.036;5.852;2023-08-06T10:19:29;18.39;77.48
65995;HTU21D;52764;51.036;5.852;2023-08-06T10:22:12;18.34;78.19
65995;HTU21D;52764;51.036;5.852;2023-08-06T10:24:53;18.36;78.24
65995;HTU21D;52764;51.036;5.852;2023-08-06T10:29:46;18.30;78.37
65995;HTU21D;52764;51.036;5.852;2023-08-06T10:32:12;18.37;78.26
65995;HTU21D;52764;51.036;5.852;2023-08-06T10:34:56;18.38;78.10
65995;HTU21D;52764;51.036;5.852;2023-08-06T10:37:44;18.28;78.20
65995;HTU21D;52764;51.036;5.852;2023-08-06T10:40:09;-4.34;78.58
65995;HTU21D;52764;51.036;5.852;2023-08-06T10:42:35;18.36;78.43
65995;HTU21D;52764;51.036;5.852;2023-08-06T10:45:19;18.38;78.28
65995;HTU21D;52764;51.036;5.852;2023-08-06T10:47:46;18.44;78.18
65995;HTU21D;52764;51.036;5.852;2023-08-06T10:50:14;18.50;78.40
65995;HTU21D;52764;51.036;5.852;2023-08-06T10:52:44;18.59;78.40
65995;HTU21D;52764;51.036;5.852;2023-08-06T10:55:10;18.67;77.49
65995;HTU21D;52764;51.036;5.852;2023-08-06T10:57:36;18.69;77.43
65995;HTU21D;52764;51.036;5.852;2023-08-06T11:00:08;18.76;77.18
65995;HTU21D;52764;51.036;5.852;2023-08-06T11:02:35;18.80;76.84
65995;HTU21D;52764;51.036;5.852;2023-08-06T11:05:08;18.83;77.02
65995;HTU21D;52764;51.036;5.852;2023-08-06T11:07:37;18.92;76.56
65995;HTU21D;52764;51.036;5.852;2023-08-06T11:10:08;18.98;76.70
65995;HTU21D;52764;51.036;5.852;2023-08-06T11:12:34;19.02;76.54
65995;HTU21D;52764;51.036;5.852;2023-08-06T11:15:02;18.97;76.40
65995;HTU21D;52764;51.036;5.852;2023-08-06T11:17:30;19.00;76.48
65995;HTU21D;52764;51.036;5.852;2023-08-06T11:20:00;19.01;76.49
65995;HTU21D;52764;51.036;5.852;2023-08-06T11:22:26;19.10;76.29
65995;HTU21D;52764;51.036;5.852;2023-08-06T11:24:53;19.08;75.95
65995;HTU21D;52764;51.036;5.852;2023-08-06T11:27:19;19.05;76.00
65995;HTU21D;52764;51.036;5.852;2023-08-06T11:29:45;19.05;75.82
65995;HTU21D;52764;51.036;5.852;2023-08-06T11:32:11;19.02;76.08
65995;HTU21D;52764;51.036;5.852;2023-08-06T11:34:39;19.03;76.18
65995;HTU21D;52764;51.036;5.852;2023-08-06T11:37:06;19.06;76.02
65995;HTU21D;52764;51.036;5.852;2023-08-06T11:39:37;19.10;75.84
65995;HTU21D;52764;51.036;5.852;2023-08-06T11:42:06;19.13;75.70
65995;HTU21D;52764;51.036;5.852;2023-08-06T11:44:35;19.16;75.54
65995;HTU21D;52764;51.036;5.852;2023-08-06T11:47:03;19.24;75.46
65995;HTU21D;52764;51.036;5.852;2023-08-06T11:52:25;19.36;75.19
65995;HTU21D;52764;51.036;5.852;2023-08-06T11:55:05;19.45;74.56
65995;HTU21D;52764;51.036;5.852;2023-08-06T11:57:38;19.48;74.15
65995;HTU21D;52764;51.036;5.852;2023-08-06T12:00:10;19.56;73.57
65995;HTU21D;52764;51.036;5.852;2023-08-06T12:02:45;19.65;73.48
65995;HTU21D;52764;51.036;5.852;2023-08-06T12:05:15;19.71;73.36
65995;HTU21D;52764;51.036;5.852;2023-08-06T12:07:46;19.73;73.35
65995;HTU21D;52764;51.036;5.852;2023-08-06T12:10:14;19.77;73.20
65995;HTU21D;52764;51.036;5.852;2023-08-06T12:12:40;19.77;72.84
65995;HTU21D;52764;51.036;5.852;2023-08-06T12:15:07;19.84;72.96
65995;HTU21D;52764;51.036;5.852;2023-08-06T12:17:34;19.90;72.72
65995;HTU21D;52764;51.036;5.852;2023-08-06T12:20:00;20.01;72.80
65995;HTU21D;52764;51.036;5.852;2023-08-06T12:22:26;20.04;71.92
65995;HTU21D;52764;51.036;5.852;2023-08-06T12:24:52;20.04;71.93
65995;HTU21D;52764;51.036;5.852;2023-08-06T12:27:18;20.13;72.12
65995;HTU21D;52764;51.036;5.852;2023-08-06T12:29:47;20.28;71.75
65995;HTU21D;52764;51.036;5.852;2023-08-06T12:32:13;20.35;71.32
65995;HTU21D;52764;51.036;5.852;2023-08-06T12:34:40;20.29;70.77
65995;HTU21D;52764;51.036;5.852;2023-08-06T12:37:07;20.12;70.55
65995;HTU21D;52764;51.036;5.852;2023-08-06T12:39:35;19.94;70.41
65995;HTU21D;52764;51.036;5.852;2023-08-06T12:42:01;19.83;70.78
65995;HTU21D;52764;51.036;5.852;2023-08-06T12:44:27;19.84;71.37
65995;HTU21D;52764;51.036;5.852;2023-08-06T12:46:54;19.95;70.99
65995;HTU21D;52764;51.036;5.852;2023-08-06T12:49:20;19.96;70.77
65995;HTU21D;52764;51.036;5.852;2023-08-06T12:51:49;20.02;70.43
65995;HTU21D;52764;51.036;5.852;2023-08-06T12:54:19;20.04;70.58
65995;HTU21D;52764;51.036;5.852;2023-08-06T12:56:47;20.09;70.53
65995;HTU21D;52764;51.036;5.852;2023-08-06T12:59:17;20.13;70.22
65995;HTU21D;52764;51.036;5.852;2023-08-06T13:01:44;20.18;70.36
65995;HTU21D;52764;51.036;5.852;2023-08-06T13:04:10;20.24;70.10
65995;HTU21D;52764;51.036;5.852;2023-08-06T13:06:37;20.22;69.91
65995;HTU21D;52764;51.036;5.852;2023-08-06T13:09:04;20.11;69.93
65995;HTU21D;52764;51.036;5.852;2023-08-06T13:11:31;20.07;70.22
65995;HTU21D;52764;51.036;5.852;2023-08-06T13:14:08;20.06;69.68
65995;HTU21D;52764;51.036;5.852;2023-08-06T13:16:35;20.02;69.91
65995;HTU21D;52764;51.036;5.852;2023-08-06T13:19:02;19.99;69.93
65995;HTU21D;52764;51.036;5.852;2023-08-06T13:21:32;19.98;69.90
65995;HTU21D;52764;51.036;5.852;2023-08-06T13:24:00;19.98;70.07
65995;HTU21D;52764;51.036;5.852;2023-08-06T13:26:27;20.01;70.28
65995;HTU21D;52764;51.036;5.852;2023-08-06T13:28:53;20.05;70.40
65995;HTU21D;52764;51.036;5.852;2023-08-06T13:31:18;20.07;70.55
65995;HTU21D;52764;51.036;5.852;2023-08-06T13:33:44;20.00;70.89
65995;HTU21D;52764;51.036;5.852;2023-08-06T13:36:10;19.98;71.03
65995;HTU21D;52764;51.036;5.852;2023-08-06T13:38:35;19.91;71.04
65995;HTU21D;52764;51.036;5.852;2023-08-06T13:41:01;19.88;71.18
65995;HTU21D;52764;51.036;5.852;2023-08-06T13:43:27;19.81;71.51
65995;HTU21D;52764;51.036;5.852;2023-08-06T13:45:53;19.81;71.90
65995;HTU21D;52764;51.036;5.852;2023-08-06T13:48:19;19.80;72.17
65995;HTU21D;52764;51.036;5.852;2023-08-06T13:50:44;19.73;72.45
65995;HTU21D;52764;51.036;5.852;2023-08-06T13:53:10;19.66;72.70
65995;HTU21D;52764;51.036;5.852;2023-08-06T13:55:36;19.56;72.76
65995;HTU21D;52764;51.036;5.852;2023-08-06T13:58:02;19.54;72.92
65995;HTU21D;52764;51.036;5.852;2023-08-06T14:00:28;19.54;73.12
65995;HTU21D;52764;51.036;5.852;2023-08-06T14:02:53;19.58;73.02
65995;HTU21D;52764;51.036;5.852;2023-08-06T14:05:19;19.60;72.87
65995;HTU21D;52764;51.036;5.852;2023-08-06T14:07:45;19.62;73.84
65995;HTU21D;52764;51.036;5.852;2023-08-06T14:10:10;19.67;73.14
65995;HTU21D;52764;51.036;5.852;2023-08-06T14:12:36;19.75;73.51
65995;HTU21D;52764;51.036;5.852;2023-08-06T14:15:02;19.85;73.11
65995;HTU21D;52764;51.036;5.852;2023-08-06T14:17:29;19.91;72.77
65995;HTU21D;52764;51.036;5.852;2023-08-06T14:19:54;19.98;72.57
65995;HTU21D;52764;51.036;5.852;2023-08-06T14:22:21;20.09;72.00
65995;HTU21D;52764;51.036;5.852;2023-08-06T14:24:47;20.16;71.75
65995;HTU21D;52764;51.036;5.852;2023-08-06T14:27:12;20.29;71.20
65995;HTU21D;52764;51.036;5.852;2023-08-06T14:29:38;20.33;71.11
65995;HTU21D;52764;51.036;5.852;2023-08-06T14:32:04;20.42;70.42
65995;HTU21D;52764;51.036;5.852;2023-08-06T14:34:30;20.45;70.47
65995;HTU21D;52764;51.036;5.852;2023-08-06T14:36:56;20.51;70.17
65995;HTU21D;52764;51.036;5.852;2023-08-06T14:39:22;20.51;69.85
65995;HTU21D;52764;51.036;5.852;2023-08-06T14:41:47;20.50;69.81
65995;HTU21D;52764;51.036;5.852;2023-08-06T14:44:13;20.58;69.80
65995;HTU21D;52764;51.036;5.852;2023-08-06T14:46:39;20.68;69.78
65995;HTU21D;52764;51.036;5.852;2023-08-06T14:49:04;20.76;69.29
65995;HTU21D;52764;51.036;5.852;2023-08-06T14:51:30;20.78;69.07
65995;HTU21D;52764;51.036;5.852;2023-08-06T14:53:56;20.90;68.58
65995;HTU21D;52764;51.036;5.852;2023-08-06T14:56:22;20.77;68.89
65995;HTU21D;52764;51.036;5.852;2023-08-06T14:58:48;20.73;68.78
65995;HTU21D;52764;51.036;5.852;2023-08-06T15:01:14;20.65;68.88
65995;HTU21D;52764;51.036;5.852;2023-08-06T15:03:40;20.70;69.02
65995;HTU21D;52764;51.036;5.852;2023-08-06T15:06:05;20.76;68.65
65995;HTU21D;52764;51.036;5.852;2023-08-06T15:08:31;20.73;68.48
65995;HTU21D;52764;51.036;5.852;2023-08-06T15:10:57;20.65;69.07
65995;HTU21D;52764;51.036;5.852;2023-08-06T15:13:23;20.63;69.41
65995;HTU21D;52764;51.036;5.852;2023-08-06T15:15:49;20.65;69.41
65995;HTU21D;52764;51.036;5.852;2023-08-06T15:18:15;20.71;69.40
65995;HTU21D;52764;51.036;5.852;2023-08-06T15:20:41;20.75;69.39
65995;HTU21D;52764;51.036;5.852;2023-08-06T15:23:07;20.78;69.17
65995;HTU21D;52764;51.036;5.852;2023-08-06T15:25:33;20.86;68.54
65995;HTU21D;52764;51.036;5.852;2023-08-06T15:27:58;20.78;68.32